Pittsburgh, Pennsylvania
Traffic Map
Current Weather Conditions
Pittsburgh, Pennsylvania
Few Clouds
Few Clouds
65°
Feels Like: 65°
Wind Chill: 65° Ceiling: Unl
Heat Index: 65° Visibility: 8mi
Dew Point: 60° Wind: 7mph
Humidity: 84% Direction: 160° (SSE)
Pressure: 30.13in Gusts: 0mph
Raw Report DataKAGC 301153Z 16006KT 8SM FEW055 18/16 A3013 RMK AO2 SLP201 T01830156 10183 20167 51010
Traffic Incident Summary
Active as of:
Severity:
Category:
InformationThere was an issue retrieving the traffic information for this location. Please try a different location or try again shortly.
Advertisements
Track Severe Weather on mobile